Terminal Aerodrome Forecast
Issued by NWS

Home | Current Version | Previous Version | Text Only | Print | Product List | Glossary On
Versions: 1 2 3 4 5 6 7 8 9 10 11 12 13 14 15 16 17 18 19 20 21 22 23 24 25 26 27 28 29 30 31 32 33 34 35 36 37 38 39 40 41 42 43 44
000
FTUS41 KRNK 210027 AAA
TAFLWB
TAF AMD
KLWB 210027Z 2100/2124 29007G16KT P6SM -SHSN SCT006 OVC030
      TEMPO 2100/2101 1SM -SHSN OVC006
     FM210500 30013G23KT P6SM -SHSN BKN045
     FM210900 30011G19KT P6SM SCT045
     FM211400 31009KT P6SM SKC=

USA.gov is the U.S. government's official web portal to all federal, state and local government web resources and services.